sensor_id;sensor_type;location;lat;lon;timestamp;P1;durP1;ratioP1;P2;durP2;ratioP2
39982;SDS011;25670;44.782;10.356;2023-03-09T00:01:25;4.47;;;4.05;;
39982;SDS011;25670;44.782;10.356;2023-03-09T00:03:53;5.28;;;3.45;;
39982;SDS011;25670;44.782;10.356;2023-03-09T00:06:20;6.82;;;3.97;;
39982;SDS011;25670;44.782;10.356;2023-03-09T00:08:47;9.32;;;4.60;;
39982;SDS011;25670;44.782;10.356;2023-03-09T00:11:14;11.27;;;4.80;;
39982;SDS011;25670;44.782;10.356;2023-03-09T00:13:41;7.47;;;4.63;;
39982;SDS011;25670;44.782;10.356;2023-03-09T00:16:19;12.10;;;5.03;;
39982;SDS011;25670;44.782;10.356;2023-03-09T00:18:47;8.15;;;4.35;;
39982;SDS011;25670;44.782;10.356;2023-03-09T00:21:17;4.13;;;3.72;;
39982;SDS011;25670;44.782;10.356;2023-03-09T00:24:01;11.65;;;5.15;;
39982;SDS011;25670;44.782;10.356;2023-03-09T00:26:27;6.30;;;4.80;;
39982;SDS011;25670;44.782;10.356;2023-03-09T00:28:53;5.25;;;4.35;;
39982;SDS011;25670;44.782;10.356;2023-03-09T00:31:20;6.15;;;4.25;;
39982;SDS011;25670;44.782;10.356;2023-03-09T00:33:46;6.10;;;5.05;;
39982;SDS011;25670;44.782;10.356;2023-03-09T00:36:14;8.43;;;5.07;;
39982;SDS011;25670;44.782;10.356;2023-03-09T00:38:41;5.97;;;4.47;;
39982;SDS011;25670;44.782;10.356;2023-03-09T00:41:08;5.18;;;4.35;;
39982;SDS011;25670;44.782;10.356;2023-03-09T00:43:35;6.47;;;4.55;;
39982;SDS011;25670;44.782;10.356;2023-03-09T00:46:01;8.75;;;4.50;;
39982;SDS011;25670;44.782;10.356;2023-03-09T00:48:28;5.88;;;4.63;;
39982;SDS011;25670;44.782;10.356;2023-03-09T00:50:54;8.55;;;5.03;;
39982;SDS011;25670;44.782;10.356;2023-03-09T00:53:20;6.93;;;4.18;;
39982;SDS011;25670;44.782;10.356;2023-03-09T00:55:47;7.15;;;3.97;;
39982;SDS011;25670;44.782;10.356;2023-03-09T00:58:13;4.43;;;3.72;;
39982;SDS011;25670;44.782;10.356;2023-03-09T01:00:39;6.93;;;3.55;;
39982;SDS011;25670;44.782;10.356;2023-03-09T01:03:06;7.40;;;3.42;;
39982;SDS011;25670;44.782;10.356;2023-03-09T01:05:32;8.02;;;4.10;;
39982;SDS011;25670;44.782;10.356;2023-03-09T01:07:58;10.07;;;4.22;;
39982;SDS011;25670;44.782;10.356;2023-03-09T01:10:25;7.10;;;4.03;;
39982;SDS011;25670;44.782;10.356;2023-03-09T01:12:51;4.82;;;4.43;;
39982;SDS011;25670;44.782;10.356;2023-03-09T01:15:20;6.68;;;4.70;;
39982;SDS011;25670;44.782;10.356;2023-03-09T01:17:47;6.18;;;4.00;;
39982;SDS011;25670;44.782;10.356;2023-03-09T01:20:13;5.80;;;4.40;;
39982;SDS011;25670;44.782;10.356;2023-03-09T01:22:40;5.97;;;4.03;;
39982;SDS011;25670;44.782;10.356;2023-03-09T01:25:06;5.28;;;4.25;;
39982;SDS011;25670;44.782;10.356;2023-03-09T01:27:33;6.28;;;4.40;;
39982;SDS011;25670;44.782;10.356;2023-03-09T01:29:59;6.65;;;4.05;;
39982;SDS011;25670;44.782;10.356;2023-03-09T01:32:26;5.60;;;4.32;;
39982;SDS011;25670;44.782;10.356;2023-03-09T01:34:52;7.45;;;5.40;;
39982;SDS011;25670;44.782;10.356;2023-03-09T01:37:19;5.85;;;4.65;;
39982;SDS011;25670;44.782;10.356;2023-03-09T01:39:48;11.75;;;4.10;;
39982;SDS011;25670;44.782;10.356;2023-03-09T01:42:15;9.00;;;3.30;;
39982;SDS011;25670;44.782;10.356;2023-03-09T01:44:41;7.18;;;4.10;;
39982;SDS011;25670;44.782;10.356;2023-03-09T01:47:07;5.45;;;4.45;;
39982;SDS011;25670;44.782;10.356;2023-03-09T01:52:15;12.80;;;4.47;;
39982;SDS011;25670;44.782;10.356;2023-03-09T01:54:59;5.18;;;4.63;;
39982;SDS011;25670;44.782;10.356;2023-03-09T01:57:45;6.28;;;5.10;;
39982;SDS011;25670;44.782;10.356;2023-03-09T02:00:18;14.52;;;5.45;;
39982;SDS011;25670;44.782;10.356;2023-03-09T02:03:02;9.13;;;6.43;;
39982;SDS011;25670;44.782;10.356;2023-03-09T02:05:35;6.15;;;5.55;;
39982;SDS011;25670;44.782;10.356;2023-03-09T02:08:26;7.50;;;5.15;;
39982;SDS011;25670;44.782;10.356;2023-03-09T02:11:02;6.88;;;5.47;;
39982;SDS011;25670;44.782;10.356;2023-03-09T02:13:34;7.85;;;6.05;;
39982;SDS011;25670;44.782;10.356;2023-03-09T02:16:03;8.35;;;6.25;;
39982;SDS011;25670;44.782;10.356;2023-03-09T02:18:31;11.38;;;6.43;;
39982;SDS011;25670;44.782;10.356;2023-03-09T02:21:17;7.75;;;6.05;;
39982;SDS011;25670;44.782;10.356;2023-03-09T02:26:59;10.70;;;6.90;;
39982;SDS011;25670;44.782;10.356;2023-03-09T02:29:29;9.25;;;6.22;;
39982;SDS011;25670;44.782;10.356;2023-03-09T02:31:58;10.85;;;7.03;;
39982;SDS011;25670;44.782;10.356;2023-03-09T02:34:24;13.68;;;7.65;;
39982;SDS011;25670;44.782;10.356;2023-03-09T02:36:51;10.57;;;6.28;;
39982;SDS011;25670;44.782;10.356;2023-03-09T02:41:59;7.10;;;6.30;;
39982;SDS011;25670;44.782;10.356;2023-03-09T02:44:28;9.05;;;6.50;;
39982;SDS011;25670;44.782;10.356;2023-03-09T02:46:55;14.27;;;6.57;;
39982;SDS011;25670;44.782;10.356;2023-03-09T02:49:24;10.15;;;7.95;;
39982;SDS011;25670;44.782;10.356;2023-03-09T02:51:50;24.35;;;10.93;;
39982;SDS011;25670;44.782;10.356;2023-03-09T02:54:18;19.20;;;11.45;;
39982;SDS011;25670;44.782;10.356;2023-03-09T02:56:44;26.77;;;14.82;;
39982;SDS011;25670;44.782;10.356;2023-03-09T02:59:11;31.00;;;15.00;;
39982;SDS011;25670;44.782;10.356;2023-03-09T03:01:37;29.42;;;16.77;;
39982;SDS011;25670;44.782;10.356;2023-03-09T03:04:03;24.85;;;16.55;;
39982;SDS011;25670;44.782;10.356;2023-03-09T03:06:32;30.95;;;18.55;;
39982;SDS011;25670;44.782;10.356;2023-03-09T03:08:58;35.83;;;17.85;;
39982;SDS011;25670;44.782;10.356;2023-03-09T03:11:25;31.85;;;18.73;;
39982;SDS011;25670;44.782;10.356;2023-03-09T03:13:51;31.27;;;18.35;;
39982;SDS011;25670;44.782;10.356;2023-03-09T03:16:20;32.88;;;18.50;;
39982;SDS011;25670;44.782;10.356;2023-03-09T03:18:51;28.75;;;19.50;;
39982;SDS011;25670;44.782;10.356;2023-03-09T03:21:18;32.90;;;18.13;;
39982;SDS011;25670;44.782;10.356;2023-03-09T03:23:45;30.98;;;18.33;;
39982;SDS011;25670;44.782;10.356;2023-03-09T03:26:12;30.17;;;18.98;;
39982;SDS011;25670;44.782;10.356;2023-03-09T03:28:44;36.45;;;19.08;;
39982;SDS011;25670;44.782;10.356;2023-03-09T03:31:18;38.25;;;18.50;;
39982;SDS011;25670;44.782;10.356;2023-03-09T03:33:45;30.80;;;19.55;;
39982;SDS011;25670;44.782;10.356;2023-03-09T03:36:12;37.25;;;19.55;;
39982;SDS011;25670;44.782;10.356;2023-03-09T03:38:42;35.63;;;20.07;;
39982;SDS011;25670;44.782;10.356;2023-03-09T03:41:09;37.88;;;18.98;;
39982;SDS011;25670;44.782;10.356;2023-03-09T03:43:38;38.53;;;18.75;;
39982;SDS011;25670;44.782;10.356;2023-03-09T03:46:04;33.72;;;18.52;;
39982;SDS011;25670;44.782;10.356;2023-03-09T03:48:31;43.70;;;19.20;;
39982;SDS011;25670;44.782;10.356;2023-03-09T03:50:58;32.55;;;18.95;;
39982;SDS011;25670;44.782;10.356;2023-03-09T03:53:25;28.02;;;18.38;;
39982;SDS011;25670;44.782;10.356;2023-03-09T03:55:53;35.97;;;18.90;;
39982;SDS011;25670;44.782;10.356;2023-03-09T03:58:19;28.65;;;17.83;;
39982;SDS011;25670;44.782;10.356;2023-03-09T04:00:46;32.38;;;18.75;;
39982;SDS011;25670;44.782;10.356;2023-03-09T04:03:15;37.70;;;18.55;;
39982;SDS011;25670;44.782;10.356;2023-03-09T04:05:45;29.25;;;17.63;;
39982;SDS011;25670;44.782;10.356;2023-03-09T04:08:14;31.60;;;17.98;;
39982;SDS011;25670;44.782;10.356;2023-03-09T04:10:41;40.22;;;17.50;;
39982;SDS011;25670;44.782;10.356;2023-03-09T04:13:10;33.83;;;18.63;;
39982;SDS011;25670;44.782;10.356;2023-03-09T04:15:37;31.83;;;17.30;;
39982;SDS011;25670;44.782;10.356;2023-03-09T04:18:04;30.83;;;17.50;;
39982;SDS011;25670;44.782;10.356;2023-03-09T04:20:32;44.30;;;18.58;;
39982;SDS011;25670;44.782;10.356;2023-03-09T04:22:59;37.47;;;17.55;;
39982;SDS011;25670;44.782;10.356;2023-03-09T04:25:27;35.03;;;18.05;;
39982;SDS011;25670;44.782;10.356;2023-03-09T04:27:54;41.65;;;19.08;;
39982;SDS011;25670;44.782;10.356;2023-03-09T04:30:30;26.48;;;17.58;;
39982;SDS011;25670;44.782;10.356;2023-03-09T04:32:59;32.38;;;17.90;;
39982;SDS011;25670;44.782;10.356;2023-03-09T04:35:26;25.02;;;16.73;;
39982;SDS011;25670;44.782;10.356;2023-03-09T04:37:55;34.70;;;17.42;;
39982;SDS011;25670;44.782;10.356;2023-03-09T04:40:22;32.47;;;17.05;;
39982;SDS011;25670;44.782;10.356;2023-03-09T04:42:52;39.05;;;17.13;;
39982;SDS011;25670;44.782;10.356;2023-03-09T04:45:19;34.55;;;16.10;;
39982;SDS011;25670;44.782;10.356;2023-03-09T04:47:47;27.40;;;16.85;;
39982;SDS011;25670;44.782;10.356;2023-03-09T04:50:15;32.70;;;16.70;;
39982;SDS011;25670;44.782;10.356;2023-03-09T04:52:49;35.35;;;16.88;;
39982;SDS011;25670;44.782;10.356;2023-03-09T04:55:16;31.55;;;17.05;;
39982;SDS011;25670;44.782;10.356;2023-03-09T04:57:44;23.67;;;15.75;;
39982;SDS011;25670;44.782;10.356;2023-03-09T05:00:11;26.75;;;16.67;;
39982;SDS011;25670;44.782;10.356;2023-03-09T05:02:38;28.50;;;15.70;;
39982;SDS011;25670;44.782;10.356;2023-03-09T05:05:06;27.95;;;16.58;;
39982;SDS011;25670;44.782;10.356;2023-03-09T05:07:33;28.52;;;15.85;;
39982;SDS011;25670;44.782;10.356;2023-03-09T05:10:04;26.10;;;16.42;;
39982;SDS011;25670;44.782;10.356;2023-03-09T05:12:32;30.25;;;16.73;;
39982;SDS011;25670;44.782;10.356;2023-03-09T05:15:00;30.50;;;16.65;;
39982;SDS011;25670;44.782;10.356;2023-03-09T05:17:27;29.75;;;16.35;;
39982;SDS011;25670;44.782;10.356;2023-03-09T05:19:54;26.10;;;15.85;;
39982;SDS011;25670;44.782;10.356;2023-03-09T05:22:21;31.40;;;17.42;;
39982;SDS011;25670;44.782;10.356;2023-03-09T05:24:48;26.58;;;16.33;;
39982;SDS011;25670;44.782;10.356;2023-03-09T05:27:16;23.27;;;15.30;;
39982;SDS011;25670;44.782;10.356;2023-03-09T05:29:43;29.17;;;15.50;;
39982;SDS011;25670;44.782;10.356;2023-03-09T05:32:10;28.35;;;14.55;;
39982;SDS011;25670;44.782;10.356;2023-03-09T05:34:38;20.77;;;14.90;;
39982;SDS011;25670;44.782;10.356;2023-03-09T05:37:04;27.92;;;16.25;;
39982;SDS011;25670;44.782;10.356;2023-03-09T05:39:31;32.13;;;15.27;;
39982;SDS011;25670;44.782;10.356;2023-03-09T05:42:00;29.13;;;15.98;;
39982;SDS011;25670;44.782;10.356;2023-03-09T05:44:30;26.63;;;15.77;;
39982;SDS011;25670;44.782;10.356;2023-03-09T05:46:57;30.63;;;16.15;;
39982;SDS011;25670;44.782;10.356;2023-03-09T05:49:24;32.10;;;16.42;;
39982;SDS011;25670;44.782;10.356;2023-03-09T05:51:56;26.00;;;16.52;;
39982;SDS011;25670;44.782;10.356;2023-03-09T05:54:23;24.92;;;16.08;;
39982;SDS011;25670;44.782;10.356;2023-03-09T05:56:53;22.63;;;16.05;;
39982;SDS011;25670;44.782;10.356;2023-03-09T05:59:23;31.15;;;16.25;;
39982;SDS011;25670;44.782;10.356;2023-03-09T06:01:50;26.25;;;15.88;;
39982;SDS011;25670;44.782;10.356;2023-03-09T06:04:21;18.83;;;15.55;;
39982;SDS011;25670;44.782;10.356;2023-03-09T06:06:52;27.75;;;16.63;;
39982;SDS011;25670;44.782;10.356;2023-03-09T06:09:22;25.17;;;16.00;;
39982;SDS011;25670;44.782;10.356;2023-03-09T06:11:49;25.63;;;14.85;;
39982;SDS011;25670;44.782;10.356;2023-03-09T06:14:18;23.77;;;15.80;;
39982;SDS011;25670;44.782;10.356;2023-03-09T06:16:45;29.55;;;16.95;;
39982;SDS011;25670;44.782;10.356;2023-03-09T06:19:12;31.75;;;17.20;;
39982;SDS011;25670;44.782;10.356;2023-03-09T06:21:40;27.98;;;16.70;;
39982;SDS011;25670;44.782;10.356;2023-03-09T06:24:08;28.20;;;15.93;;
39982;SDS011;25670;44.782;10.356;2023-03-09T06:26:34;32.90;;;18.48;;
39982;SDS011;25670;44.782;10.356;2023-03-09T06:29:07;26.05;;;17.02;;
39982;SDS011;25670;44.782;10.356;2023-03-09T06:31:37;30.27;;;18.15;;
39982;SDS011;25670;44.782;10.356;2023-03-09T06:34:04;47.15;;;19.05;;
39982;SDS011;25670;44.782;10.356;2023-03-09T06:36:30;32.15;;;17.67;;
39982;SDS011;25670;44.782;10.356;2023-03-09T06:38:58;29.80;;;17.50;;
39982;SDS011;25670;44.782;10.356;2023-03-09T06:44:05;27.02;;;15.63;;
39982;SDS011;25670;44.782;10.356;2023-03-09T06:46:34;28.63;;;17.35;;
39982;SDS011;25670;44.782;10.356;2023-03-09T06:49:00;26.45;;;16.75;;
39982;SDS011;25670;44.782;10.356;2023-03-09T06:51:28;37.38;;;17.02;;
39982;SDS011;25670;44.782;10.356;2023-03-09T06:53:56;28.10;;;18.60;;
39982;SDS011;25670;44.782;10.356;2023-03-09T06:56:28;30.85;;;17.00;;
39982;SDS011;25670;44.782;10.356;2023-03-09T06:58:55;29.45;;;16.58;;
39982;SDS011;25670;44.782;10.356;2023-03-09T07:01:22;25.58;;;16.80;;
39982;SDS011;25670;44.782;10.356;2023-03-09T07:03:51;23.38;;;15.02;;
39982;SDS011;25670;44.782;10.356;2023-03-09T07:06:18;31.33;;;16.92;;
39982;SDS011;25670;44.782;10.356;2023-03-09T07:08:44;20.45;;;15.00;;
39982;SDS011;25670;44.782;10.356;2023-03-09T07:11:10;25.55;;;15.35;;
39982;SDS011;25670;44.782;10.356;2023-03-09T07:13:37;20.85;;;14.77;;
39982;SDS011;25670;44.782;10.356;2023-03-09T07:16:04;22.13;;;14.75;;
39982;SDS011;25670;44.782;10.356;2023-03-09T07:18:30;28.25;;;14.10;;
39982;SDS011;25670;44.782;10.356;2023-03-09T07:21:01;20.67;;;14.23;;
39982;SDS011;25670;44.782;10.356;2023-03-09T07:23:28;28.38;;;13.75;;
39982;SDS011;25670;44.782;10.356;2023-03-09T07:25:59;17.98;;;12.57;;
39982;SDS011;25670;44.782;10.356;2023-03-09T07:28:29;19.63;;;13.77;;
39982;SDS011;25670;44.782;10.356;2023-03-09T07:30:55;23.33;;;13.68;;
39982;SDS011;25670;44.782;10.356;2023-03-09T07:33:22;19.45;;;13.15;;
39982;SDS011;25670;44.782;10.356;2023-03-09T07:35:49;27.98;;;13.77;;
39982;SDS011;25670;44.782;10.356;2023-03-09T07:38:15;19.88;;;12.23;;
39982;SDS011;25670;44.782;10.356;2023-03-09T07:40:42;17.95;;;12.23;;
39982;SDS011;25670;44.782;10.356;2023-03-09T07:43:10;24.65;;;13.00;;
39982;SDS011;25670;44.782;10.356;2023-03-09T07:45:42;19.58;;;12.38;;
39982;SDS011;25670;44.782;10.356;2023-03-09T07:48:09;18.25;;;12.02;;
39982;SDS011;25670;44.782;10.356;2023-03-09T07:50:37;24.80;;;12.13;;
39982;SDS011;25670;44.782;10.356;2023-03-09T07:53:03;24.83;;;11.60;;
39982;SDS011;25670;44.782;10.356;2023-03-09T07:55:29;18.95;;;11.88;;
39982;SDS011;25670;44.782;10.356;2023-03-09T07:58:00;15.48;;;12.10;;
39982;SDS011;25670;44.782;10.356;2023-03-09T08:00:27;21.60;;;11.57;;
39982;SDS011;25670;44.782;10.356;2023-03-09T08:02:54;20.45;;;11.93;;
39982;SDS011;25670;44.782;10.356;2023-03-09T08:05:21;20.38;;;11.90;;
39982;SDS011;25670;44.782;10.356;2023-03-09T08:07:48;17.38;;;11.93;;
39982;SDS011;25670;44.782;10.356;2023-03-09T08:10:16;13.88;;;9.85;;
39982;SDS011;25670;44.782;10.356;2023-03-09T08:12:46;19.45;;;10.95;;
39982;SDS011;25670;44.782;10.356;2023-03-09T08:15:13;14.05;;;9.43;;
39982;SDS011;25670;44.782;10.356;2023-03-09T08:17:40;19.42;;;11.18;;
39982;SDS011;25670;44.782;10.356;2023-03-09T08:20:06;15.73;;;9.90;;
39982;SDS011;25670;44.782;10.356;2023-03-09T08:22:37;14.70;;;10.25;;
39982;SDS011;25670;44.782;10.356;2023-03-09T08:25:04;23.85;;;10.13;;
39982;SDS011;25670;44.782;10.356;2023-03-09T08:27:41;12.35;;;9.73;;
39982;SDS011;25670;44.782;10.356;2023-03-09T08:30:10;11.02;;;9.65;;
39982;SDS011;25670;44.782;10.356;2023-03-09T08:32:37;12.80;;;10.13;;
39982;SDS011;25670;44.782;10.356;2023-03-09T08:35:04;14.13;;;9.38;;
39982;SDS011;25670;44.782;10.356;2023-03-09T08:37:30;13.63;;;10.40;;
39982;SDS011;25670;44.782;10.356;2023-03-09T08:39:57;17.25;;;10.10;;
39982;SDS011;25670;44.782;10.356;2023-03-09T08:42:23;11.00;;;9.82;;
39982;SDS011;25670;44.782;10.356;2023-03-09T08:44:49;21.10;;;8.65;;
39982;SDS011;25670;44.782;10.356;2023-03-09T08:47:16;14.25;;;9.77;;
39982;SDS011;25670;44.782;10.356;2023-03-09T08:49:42;22.10;;;9.20;;
39982;SDS011;25670;44.782;10.356;2023-03-09T08:52:09;14.32;;;9.65;;
39982;SDS011;25670;44.782;10.356;2023-03-09T08:54:35;13.38;;;9.93;;
39982;SDS011;25670;44.782;10.356;2023-03-09T08:57:02;16.15;;;8.75;;
39982;SDS011;25670;44.782;10.356;2023-03-09T08:59:28;12.43;;;9.50;;
39982;SDS011;25670;44.782;10.356;2023-03-09T09:01:54;12.02;;;9.00;;
39982;SDS011;25670;44.782;10.356;2023-03-09T09:04:21;11.65;;;9.25;;
39982;SDS011;25670;44.782;10.356;2023-03-09T09:06:47;11.85;;;9.32;;
39982;SDS011;25670;44.782;10.356;2023-03-09T09:09:14;13.90;;;9.88;;
39982;SDS011;25670;44.782;10.356;2023-03-09T09:11:40;10.50;;;9.18;;
39982;SDS011;25670;44.782;10.356;2023-03-09T09:14:06;10.15;;;9.07;;
39982;SDS011;25670;44.782;10.356;2023-03-09T09:16:33;14.68;;;8.77;;
39982;SDS011;25670;44.782;10.356;2023-03-09T09:18:59;20.30;;;10.07;;
39982;SDS011;25670;44.782;10.356;2023-03-09T09:21:25;25.85;;;10.05;;
39982;SDS011;25670;44.782;10.356;2023-03-09T09:23:53;19.65;;;10.30;;
39982;SDS011;25670;44.782;10.356;2023-03-09T09:26:20;19.02;;;10.32;;
39982;SDS011;25670;44.782;10.356;2023-03-09T09:28:47;17.40;;;11.32;;
39982;SDS011;25670;44.782;10.356;2023-03-09T09:31:17;12.63;;;9.02;;
39982;SDS011;25670;44.782;10.356;2023-03-09T09:33:47;17.08;;;10.25;;
39982;SDS011;25670;44.782;10.356;2023-03-09T09:36:14;16.33;;;10.57;;
39982;SDS011;25670;44.782;10.356;2023-03-09T09:38:44;15.98;;;10.77;;
39982;SDS011;25670;44.782;10.356;2023-03-09T09:43:43;19.17;;;11.18;;
39982;SDS011;25670;44.782;10.356;2023-03-09T09:46:11;14.20;;;10.23;;
39982;SDS011;25670;44.782;10.356;2023-03-09T09:48:40;15.77;;;10.77;;
39982;SDS011;25670;44.782;10.356;2023-03-09T09:56:59;17.02;;;10.90;;
39982;SDS011;25670;44.782;10.356;2023-03-09T10:04:36;22.80;;;12.48;;
39982;SDS011;25670;44.782;10.356;2023-03-09T10:07:14;22.08;;;12.27;;
39982;SDS011;25670;44.782;10.356;2023-03-09T10:09:48;21.55;;;12.98;;
39982;SDS011;25670;44.782;10.356;2023-03-09T10:12:18;20.30;;;12.05;;
39982;SDS011;25670;44.782;10.356;2023-03-09T10:17:18;24.95;;;13.27;;
39982;SDS011;25670;44.782;10.356;2023-03-09T10:19:50;29.67;;;14.43;;
39982;SDS011;25670;44.782;10.356;2023-03-09T10:22:23;28.92;;;13.57;;
39982;SDS011;25670;44.782;10.356;2023-03-09T10:24:57;21.63;;;13.63;;
39982;SDS011;25670;44.782;10.356;2023-03-09T10:27:43;21.35;;;13.45;;
39982;SDS011;25670;44.782;10.356;2023-03-09T10:30:36;23.23;;;13.32;;
39982;SDS011;25670;44.782;10.356;2023-03-09T10:38:21;29.15;;;14.45;;
39982;SDS011;25670;44.782;10.356;2023-03-09T10:40:52;21.98;;;13.48;;
39982;SDS011;25670;44.782;10.356;2023-03-09T10:43:25;26.88;;;13.52;;
39982;SDS011;25670;44.782;10.356;2023-03-09T10:46:17;25.77;;;13.35;;
39982;SDS011;25670;44.782;10.356;2023-03-09T10:48:49;26.83;;;12.60;;
39982;SDS011;25670;44.782;10.356;2023-03-09T10:51:36;24.75;;;12.88;;
39982;SDS011;25670;44.782;10.356;2023-03-09T10:56:53;21.23;;;13.23;;
39982;SDS011;25670;44.782;10.356;2023-03-09T10:59:23;22.50;;;13.32;;
39982;SDS011;25670;44.782;10.356;2023-03-09T11:06:49;23.27;;;13.60;;
39982;SDS011;25670;44.782;10.356;2023-03-09T11:10:01;26.55;;;13.80;;
39982;SDS011;25670;44.782;10.356;2023-03-09T11:12:42;27.42;;;14.30;;
39982;SDS011;25670;44.782;10.356;2023-03-09T11:15:04;20.83;;;12.82;;
39982;SDS011;25670;44.782;10.356;2023-03-09T11:17:44;26.17;;;13.13;;
39982;SDS011;25670;44.782;10.356;2023-03-09T11:22:45;21.73;;;13.23;;
39982;SDS011;25670;44.782;10.356;2023-03-09T11:25:16;27.95;;;14.88;;
39982;SDS011;25670;44.782;10.356;2023-03-09T11:27:52;24.02;;;14.15;;
39982;SDS011;25670;44.782;10.356;2023-03-09T11:30:24;21.83;;;13.63;;
39982;SDS011;25670;44.782;10.356;2023-03-09T11:32:53;27.52;;;14.05;;
39982;SDS011;25670;44.782;10.356;2023-03-09T11:35:19;27.55;;;14.27;;
39982;SDS011;25670;44.782;10.356;2023-03-09T11:38:05;36.25;;;13.48;;
39982;SDS011;25670;44.782;10.356;2023-03-09T11:40:36;27.00;;;13.35;;
39982;SDS011;25670;44.782;10.356;2023-03-09T11:43:05;20.73;;;12.02;;
39982;SDS011;25670;44.782;10.356;2023-03-09T11:45:43;21.33;;;13.20;;
39982;SDS011;25670;44.782;10.356;2023-03-09T11:48:29;21.77;;;12.68;;
39982;SDS011;25670;44.782;10.356;2023-03-09T11:51:05;21.90;;;12.73;;
39982;SDS011;25670;44.782;10.356;2023-03-09T11:56:37;19.40;;;11.98;;
39982;SDS011;25670;44.782;10.356;2023-03-09T12:02:25;17.40;;;12.25;;
39982;SDS011;25670;44.782;10.356;2023-03-09T12:04:55;20.27;;;12.93;;
39982;SDS011;25670;44.782;10.356;2023-03-09T12:10:22;21.80;;;11.70;;
39982;SDS011;25670;44.782;10.356;2023-03-09T12:13:20;19.50;;;11.43;;
39982;SDS011;25670;44.782;10.356;2023-03-09T12:15:54;19.50;;;11.60;;
39982;SDS011;25670;44.782;10.356;2023-03-09T12:18:27;18.33;;;12.20;;
39982;SDS011;25670;44.782;10.356;2023-03-09T12:20:57;22.38;;;11.80;;
39982;SDS011;25670;44.782;10.356;2023-03-09T12:26:04;20.58;;;11.60;;
39982;SDS011;25670;44.782;10.356;2023-03-09T12:28:40;16.13;;;11.50;;
39982;SDS011;25670;44.782;10.356;2023-03-09T12:31:22;18.90;;;11.38;;
39982;SDS011;25670;44.782;10.356;2023-03-09T12:45:01;13.77;;;9.38;;
39982;SDS011;25670;44.782;10.356;2023-03-09T12:47:23;17.50;;;9.90;;
39982;SDS011;25670;44.782;10.356;2023-03-09T12:49:56;16.23;;;9.05;;
39982;SDS011;25670;44.782;10.356;2023-03-09T12:55:16;16.25;;;9.15;;
39982;SDS011;25670;44.782;10.356;2023-03-09T12:57:47;16.88;;;9.20;;
39982;SDS011;25670;44.782;10.356;2023-03-09T13:02:47;15.50;;;8.70;;
39982;SDS011;25670;44.782;10.356;2023-03-09T13:05:27;11.73;;;9.27;;
39982;SDS011;25670;44.782;10.356;2023-03-09T13:07:59;11.98;;;8.02;;
39982;SDS011;25670;44.782;10.356;2023-03-09T13:10:33;18.08;;;9.90;;
39982;SDS011;25670;44.782;10.356;2023-03-09T13:24:25;10.40;;;8.38;;
39982;SDS011;25670;44.782;10.356;2023-03-09T13:29:49;11.27;;;6.68;;
39982;SDS011;25670;44.782;10.356;2023-03-09T13:32:28;11.32;;;7.45;;
39982;SDS011;25670;44.782;10.356;2023-03-09T13:35:49;16.80;;;7.97;;
39982;SDS011;25670;44.782;10.356;2023-03-09T13:38:23;14.18;;;7.80;;
39982;SDS011;25670;44.782;10.356;2023-03-09T13:40:56;11.25;;;8.07;;
39982;SDS011;25670;44.782;10.356;2023-03-09T13:43:26;13.32;;;7.10;;
39982;SDS011;25670;44.782;10.356;2023-03-09T13:46:17;11.95;;;8.15;;
39982;SDS011;25670;44.782;10.356;2023-03-09T13:48:44;11.18;;;6.10;;
39982;SDS011;25670;44.782;10.356;2023-03-09T13:51:27;11.13;;;7.00;;
39982;SDS011;25670;44.782;10.356;2023-03-09T13:54:00;12.45;;;6.00;;
39982;SDS011;25670;44.782;10.356;2023-03-09T13:56:26;13.70;;;6.53;;
39982;SDS011;25670;44.782;10.356;2023-03-09T13:58:54;9.40;;;7.07;;
39982;SDS011;25670;44.782;10.356;2023-03-09T14:01:27;13.82;;;6.95;;
39982;SDS011;25670;44.782;10.356;2023-03-09T14:03:55;9.27;;;6.13;;
39982;SDS011;25670;44.782;10.356;2023-03-09T14:06:32;13.38;;;5.40;;
39982;SDS011;25670;44.782;10.356;2023-03-09T14:09:05;18.52;;;6.32;;
39982;SDS011;25670;44.782;10.356;2023-03-09T14:11:49;11.05;;;5.78;;
39982;SDS011;25670;44.782;10.356;2023-03-09T14:14:17;12.70;;;5.20;;
39982;SDS011;25670;44.782;10.356;2023-03-09T14:16:46;8.85;;;5.32;;
39982;SDS011;25670;44.782;10.356;2023-03-09T14:19:33;12.98;;;7.55;;
39982;SDS011;25670;44.782;10.356;2023-03-09T14:21:59;13.18;;;6.15;;
39982;SDS011;25670;44.782;10.356;2023-03-09T14:24:30;11.38;;;5.15;;
39982;SDS011;25670;44.782;10.356;2023-03-09T14:27:10;8.32;;;4.32;;
39982;SDS011;25670;44.782;10.356;2023-03-09T14:29:49;10.77;;;4.53;;
39982;SDS011;25670;44.782;10.356;2023-03-09T14:34:51;9.60;;;4.68;;
39982;SDS011;25670;44.782;10.356;2023-03-09T14:37:26;13.93;;;4.60;;
39982;SDS011;25670;44.782;10.356;2023-03-09T14:39:55;12.10;;;4.20;;
39982;SDS011;25670;44.782;10.356;2023-03-09T14:42:24;12.25;;;3.60;;
39982;SDS011;25670;44.782;10.356;2023-03-09T14:47:40;9.32;;;2.47;;
39982;SDS011;25670;44.782;10.356;2023-03-09T14:50:12;9.70;;;3.13;;
39982;SDS011;25670;44.782;10.356;2023-03-09T14:52:40;4.75;;;2.55;;
39982;SDS011;25670;44.782;10.356;2023-03-09T14:55:14;4.40;;;1.80;;
39982;SDS011;25670;44.782;10.356;2023-03-09T14:57:42;4.90;;;1.70;;
39982;SDS011;25670;44.782;10.356;2023-03-09T15:00:16;3.63;;;1.15;;
39982;SDS011;25670;44.782;10.356;2023-03-09T15:02:45;6.40;;;1.85;;
39982;SDS011;25670;44.782;10.356;2023-03-09T15:05:13;3.13;;;1.45;;
39982;SDS011;25670;44.782;10.356;2023-03-09T15:07:41;7.28;;;1.30;;
39982;SDS011;25670;44.782;10.356;2023-03-09T15:10:08;4.15;;;1.15;;
39982;SDS011;25670;44.782;10.356;2023-03-09T15:12:34;7.28;;;1.80;;
39982;SDS011;25670;44.782;10.356;2023-03-09T15:15:01;5.20;;;1.55;;
39982;SDS011;25670;44.782;10.356;2023-03-09T15:17:28;6.38;;;1.83;;
39982;SDS011;25670;44.782;10.356;2023-03-09T15:19:54;5.93;;;1.83;;
39982;SDS011;25670;44.782;10.356;2023-03-09T15:22:21;7.07;;;2.00;;
39982;SDS011;25670;44.782;10.356;2023-03-09T15:24:47;3.90;;;1.77;;
39982;SDS011;25670;44.782;10.356;2023-03-09T15:27:13;6.15;;;1.23;;
39982;SDS011;25670;44.782;10.356;2023-03-09T15:29:40;3.95;;;1.17;;
39982;SDS011;25670;44.782;10.356;2023-03-09T15:32:06;4.90;;;1.13;;
39982;SDS011;25670;44.782;10.356;2023-03-09T15:34:33;8.95;;;1.80;;
39982;SDS011;25670;44.782;10.356;2023-03-09T15:37:01;2.83;;;0.98;;
39982;SDS011;25670;44.782;10.356;2023-03-09T15:39:28;4.80;;;0.90;;
39982;SDS011;25670;44.782;10.356;2023-03-09T15:41:54;4.18;;;1.05;;
39982;SDS011;25670;44.782;10.356;2023-03-09T15:44:21;2.95;;;1.10;;
39982;SDS011;25670;44.782;10.356;2023-03-09T15:46:47;7.95;;;1.27;;
39982;SDS011;25670;44.782;10.356;2023-03-09T15:49:14;8.55;;;1.55;;
39982;SDS011;25670;44.782;10.356;2023-03-09T15:51:40;6.38;;;1.55;;
39982;SDS011;25670;44.782;10.356;2023-03-09T15:54:07;5.13;;;1.25;;
39982;SDS011;25670;44.782;10.356;2023-03-09T15:56:34;5.38;;;1.45;;
39982;SDS011;25670;44.782;10.356;2023-03-09T15:59:01;6.25;;;1.60;;
39982;SDS011;25670;44.782;10.356;2023-03-09T16:01:28;3.42;;;1.25;;
39982;SDS011;25670;44.782;10.356;2023-03-09T16:03:54;6.25;;;1.50;;